»·PEaware :: SWA1097 KSFO-KLAS

SWA1097 :: KSFO-KLAS

FLIGHT INFORMATION

Flight Status: Arrived
Operator:
Southwest Airlines
More flights by this operator :: More flights under this callsign
Pilot: Adam A. (5112)
Aircraft: BOEING 737-300
(B733)
More flights by this aircraft type
Origin: KSFO San Francisco Intl
United States
Destination: KLAS McCarran Intl
United States
More flights between these airports :: More routes between these airports
Route: +WESLA3 NTELL Q162 ESSAA BTY SUNST3
File this flight plan on PilotEdge
Remarks:
Altitude:
(Current/Filed)
33,000ft
Speed:
(Current/Filed)
434kts
Departed: 21-Jun-16 04:11 PM
Arrived: 21-Jun-16 05:20 PM
Distance/Time
Traveled:
359nm/1:09
Distance/Time
To Go:
Arrived

Flight Plot

Page will automatically refresh every two minutes.


Map Options




Map Legend


Flown Route
Filed Route
Departure Airport
Arrival Airport
Navaid (VOR, NDB)
Fix

Horizontal Profiles

Position Reports

Time Latitude Longitude Heading Altitude Ground
Speed
21-Jun-16 15:40 37.612842 -122.383197 296 20ft 0kts
21-Jun-16 15:41 37.612842 -122.383197 296 20ft 0kts
21-Jun-16 15:42 37.612842 -122.383197 296 20ft 0kts
21-Jun-16 15:43 37.612842 -122.383197 296 20ft 0kts
21-Jun-16 15:43 37.612842 -122.383197 296 20ft 0kts
21-Jun-16 15:44 37.612842 -122.383197 296 20ft 0kts
21-Jun-16 15:45 37.612842 -122.383197 296 20ft 0kts
21-Jun-16 15:46 37.612842 -122.383197 296 20ft 0kts
21-Jun-16 15:47 37.612842 -122.383197 296 20ft 0kts
21-Jun-16 15:48 37.612842 -122.383197 296 20ft 0kts
21-Jun-16 15:49 37.612842 -122.383197 296 20ft 0kts
21-Jun-16 15:50 37.612842 -122.383197 296 20ft 0kts
21-Jun-16 15:51 37.612842 -122.383197 296 20ft 0kts
21-Jun-16 15:52 37.612842 -122.383197 296 20ft 0kts
21-Jun-16 15:53 37.612842 -122.383197 296 20ft 0kts
21-Jun-16 15:54 37.612842 -122.383197 296 20ft 0kts
21-Jun-16 15:55 37.612842 -122.383197 296 20ft 0kts
21-Jun-16 15:56 37.612842 -122.383197 296 20ft 0kts
21-Jun-16 15:57 37.612842 -122.383197 296 20ft 0kts
21-Jun-16 15:58 37.612842 -122.383197 296 20ft 0kts
21-Jun-16 15:59 37.612642 -122.382738 312 20ft 0kts
21-Jun-16 16:00 37.612276 -122.382679 11 20ft 0kts
21-Jun-16 16:02 37.612276 -122.382679 11 20ft 0kts
21-Jun-16 16:03 37.612488 -122.382489 39 20ft 5kts
21-Jun-16 16:04 37.616001 -122.380060 26 20ft 21kts
21-Jun-16 16:05 37.616226 -122.372905 108 20ft 23kts
21-Jun-16 16:06 37.612869 -122.365964 118 20ft 22kts
21-Jun-16 16:07 37.610524 -122.359561 68 20ft 16kts
21-Jun-16 16:08 37.613671 -122.363016 297 20ft 75kts
21-Jun-16 16:09 37.634070 -122.406005 301 1462ft 171kts
21-Jun-16 16:10 37.657690 -122.470136 294 3450ft 223kts
21-Jun-16 16:11 37.650917 -122.542677 200 5809ft 273kts
21-Jun-16 16:12 37.578982 -122.511087 162 8652ft 292kts
21-Jun-16 16:13 37.499329 -122.477044 160 10468ft 340kts
21-Jun-16 16:14 37.452462 -122.376015 100 12840ft 368kts
21-Jun-16 16:15 37.428154 -122.249150 105 15172ft 387kts
21-Jun-16 16:16 37.399970 -122.116435 105 17277ft 404kts
21-Jun-16 16:17 37.370309 -121.978191 106 19204ft 419kts
21-Jun-16 16:18 37.340014 -121.836337 106 20935ft 433kts
21-Jun-16 16:19 37.308245 -121.689304 107 22499ft 444kts
21-Jun-16 16:20 37.275385 -121.539100 107 23933ft 455kts
21-Jun-16 16:21 37.241380 -121.384716 108 25222ft 465kts
21-Jun-16 16:22 37.206512 -121.227494 108 26308ft 475kts
21-Jun-16 16:23 37.171006 -121.068476 107 27584ft 477kts
21-Jun-16 16:24 37.135374 -120.910001 106 28964ft 471kts
21-Jun-16 16:25 37.100926 -120.755555 107 30151ft 467kts
21-Jun-16 16:26 37.065628 -120.600622 107 31276ft 464kts
21-Jun-16 16:27 37.030275 -120.446517 107 32274ft 462kts
21-Jun-16 16:28 36.994784 -120.292820 107 33025ft 463kts
21-Jun-16 16:29 36.959031 -120.138980 107 33009ft 462kts
21-Jun-16 16:30 36.923271 -119.986112 107 33006ft 463kts
21-Jun-16 16:31 36.909573 -119.832953 65 32988ft 465kts
21-Jun-16 16:32 36.964388 -119.686887 68 33006ft 467kts
21-Jun-16 16:33 37.013071 -119.537387 68 32998ft 467kts
21-Jun-16 16:34 37.061450 -119.388102 68 33000ft 467kts
21-Jun-16 16:35 37.109628 -119.238674 68 33015ft 466kts
21-Jun-16 16:36 37.157836 -119.088370 68 33263ft 469kts
21-Jun-16 16:37 37.206196 -118.936800 68 33330ft 471kts
21-Jun-16 16:37 37.246121 -118.812477 68 33298ft 469kts
21-Jun-16 16:39 37.284647 -118.630133 86 33198ft 471kts
21-Jun-16 16:39 37.295867 -118.494336 84 33061ft 471kts
21-Jun-16 16:40 37.310635 -118.331529 84 33064ft 472kts
21-Jun-16 16:41 37.325177 -118.168479 84 33063ft 472kts
21-Jun-16 16:42 37.339464 -118.005704 84 33064ft 472kts
21-Jun-16 16:43 37.347030 -117.844365 98 33065ft 469kts
21-Jun-16 16:44 37.330834 -117.681394 97 33065ft 470kts
21-Jun-16 16:45 37.316164 -117.518748 97 33088ft 469kts
21-Jun-16 16:46 37.301391 -117.357579 97 33177ft 468kts
21-Jun-16 16:47 37.244000 -117.219748 132 33191ft 461kts
21-Jun-16 16:48 37.164954 -117.094232 128 33192ft 461kts
21-Jun-16 16:49 37.087356 -116.967343 128 33192ft 461kts
21-Jun-16 16:50 36.988547 -116.875397 153 33194ft 457kts
21-Jun-16 16:51 36.878431 -116.799543 152 33069ft 455kts
21-Jun-16 16:52 36.774409 -116.713571 132 32962ft 457kts
21-Jun-16 16:53 36.692425 -116.593505 133 30848ft 464kts
21-Jun-16 16:54 36.607785 -116.473223 133 27319ft 464kts
21-Jun-16 16:55 36.525636 -116.356868 133 24908ft 440kts
21-Jun-16 16:56 36.448987 -116.248444 132 23079ft 414kts
21-Jun-16 16:57 36.374116 -116.141424 133 20216ft 406kts
21-Jun-16 16:59 36.302946 -116.041552 133 18083ft 375kts
21-Jun-16 17:00 36.237381 -115.949859 133 16324ft 342kts
21-Jun-16 17:01 36.186819 -115.858064 113 15984ft 320kts
21-Jun-16 17:02 36.153740 -115.754093 113 15507ft 318kts
21-Jun-16 17:03 36.120484 -115.650801 113 15030ft 315kts
21-Jun-16 17:04 36.088598 -115.549340 113 13566ft 320kts
21-Jun-16 17:05 36.056321 -115.449263 113 11881ft 310kts
21-Jun-16 17:06 36.029694 -115.353731 96 10993ft 282kts
21-Jun-16 17:07 36.022869 -115.259161 96 11103ft 272kts
21-Jun-16 17:08 36.016559 -115.169480 96 10143ft 247kts
21-Jun-16 17:09 36.016767 -115.087905 86 8895ft 227kts
21-Jun-16 17:10 36.022539 -115.014921 86 7407ft 210kts
21-Jun-16 17:11 36.030751 -114.944551 73 5522ft 213kts
21-Jun-16 17:12 36.077876 -114.936625 293 3785ft 186kts
21-Jun-16 17:13 36.075168 -114.990956 256 3944ft 165kts
21-Jun-16 17:14 36.073525 -115.044607 264 3537ft 159kts
21-Jun-16 17:15 36.073875 -115.097211 263 2668ft 151kts
21-Jun-16 17:16 36.073629 -115.142588 269 2189ft 81kts
21-Jun-16 17:17 36.076739 -115.152218 333 2189ft 13kts
21-Jun-16 17:18 36.077958 -115.152916 335 2189ft 2kts
21-Jun-16 17:19 36.078674 -115.149736 94 2189ft 19kts
21-Jun-16 17:20 36.079927 -115.147106 56 2189ft 2kts
21-Jun-16 17:21 36.079945 -115.147072 56 2189ft 0kts

Navigation Log

Ident Type
Flight plan parsing failed, navigation log unavailable